^^
Station Historical Data
Daily Summary for January 17, 2018 Units:  Both    English   Metric
« Previous Day
Next Day »
Daily Weekly Monthly Yearly Custom
  High: Low: Average:
Temperature: TemperatureC °F /  -17.8 °C -7.3 °F /  -21.8 °C -6.4 °F /  -21.3 °C
Dew Point: DewpointC °F /  -17.8 °C -10.2 °F /  -23.4 °C -8.2 °F /  -22.3 °C
Humidity: Humidity% 72% 87%
Wind Speed: WindSpeedKMHmph /  0km/h - 4.6mph /  7.4km/h
Wind Gust: WindSpeedGustKMHmph /  0km/h - -
Wind- - ESE
Pressure: PressurehPa in /  0 hPa 996.5 in /  33741.5 hPa -
Precipitation: 1.5 in /  38.1 mm    
Historical Graphs
 
 
Tabular Data for January 17, 2018
Time Temperature Dew Point Pressure Wind Wind Speed Wind Gust Humidity Rainfall Rate (Hourly) solar Conditions
TemperatureC °F /  -17.8 °C DewpointC °F /  -17.8 °C PressurehPain /  0hPa Calm     Humidity% HourlyPrecipMMin /  0mm SoftwareType W/m2 Conditions
00:07 -5.9 °F /  -21.1 °C -9.9 °F /  -23.3 °C 1002.3in /  33937.9hPa ENE 7.9mph /  12.7km/h 19.3mph /  31.1km/h 73% 0.0in /  0mm WeatherDisplay:10.37 W/m2 FEW
00:14 -5.9 °F /  -21.1 °C -10.0 °F /  -23.3 °C 1002.3in /  33937.9hPa East 13.0mph /  20.9km/h 13.0mph /  20.9km/h 73% 0.0in /  0mm WeatherDisplay:10.37 W/m2 FEW
00:19 -6.0 °F /  -21.1 °C -10.2 °F /  -23.4 °C 1002.3in /  33937.9hPa ESE 9.3mph /  15km/h 18.5mph /  29.8km/h 72% 0.0in /  0mm WeatherDisplay:10.37 W/m2 FEW
00:24 -6.0 °F /  -21.1 °C -10.2 °F /  -23.4 °C 1001.9in /  33924.3hPa East 5.0mph /  8km/h 5.6mph /  9km/h 72% 0.0in /  0mm WeatherDisplay:10.37 W/m2 FEW
00:29 -6.0 °F /  -21.1 °C -10.2 °F /  -23.4 °C 1001.9in /  33924.3hPa ESE 6.9mph /  11.1km/h 25.9mph /  41.7km/h 72% 0.0in /  0mm WeatherDisplay:10.37 W/m2 FEW
00:37 -6.1 °F /  -21.2 °C -9.9 °F /  -23.3 °C 1001.9in /  33924.3hPa East 10.3mph /  16.6km/h 13.0mph /  20.9km/h 74% 0.0in /  0mm WeatherDisplay:10.37 W/m2 FEW
00:46 -6.1 °F /  -21.2 °C -9.6 °F /  -23.1 °C 1001.9in /  33924.3hPa SSE 12.2mph /  19.6km/h 13.0mph /  20.9km/h 76% 0.0in /  0mm WeatherDisplay:10.37 W/m2 FEW
00:56 -6.1 °F /  -21.2 °C -9.4 °F /  -23 °C 1001.9in /  33924.3hPa SE 7.6mph /  12.2km/h 14.8mph /  23.8km/h 77% 0.0in /  0mm WeatherDisplay:10.37 W/m2 FEW
01:02 -6.1 °F /  -21.2 °C -9.5 °F /  -23.1 °C 1001.6in /  33914.2hPa South 10.9mph /  17.5km/h 18.5mph /  29.8km/h 77% 0.0in /  0mm WeatherDisplay:10.37 W/m2 FEW
01:16 -6.2 °F /  -21.2 °C -9.6 °F /  -23.1 °C 1001.6in /  33914.2hPa ESE 5.6mph /  9km/h 16.7mph /  26.9km/h 77% 0.0in /  0mm WeatherDisplay:10.37 W/m2 FEW
01:21 -6.3 °F /  -21.3 °C -9.7 °F /  -23.2 °C 1001.6in /  33914.2hPa ESE 5.8mph /  9.3km/h 18.5mph /  29.8km/h 77% 0.0in /  0mm WeatherDisplay:10.37 W/m2 FEW
01:31 -6.4 °F /  -21.3 °C -9.7 °F /  -23.2 °C 1001.2in /  33900.6hPa ESE 9.5mph /  15.3km/h 22.2mph /  35.7km/h 78% 0.0in /  0mm WeatherDisplay:10.37 W/m2 FEW
01:36 -6.5 °F /  -21.4 °C -9.7 °F /  -23.2 °C 1001.2in /  33900.6hPa ENE 13.5mph /  21.7km/h 20.4mph /  32.8km/h 78% 0.0in /  0mm WeatherDisplay:10.37 W/m2 FEW
01:46 -6.6 °F /  -21.4 °C -9.6 °F /  -23.1 °C 1001.2in /  33900.6hPa NE 10.1mph /  16.3km/h 31.5mph /  50.7km/h 79% 0.0in /  0mm WeatherDisplay:10.37 W/m2 FEW
01:51 -6.6 °F /  -21.4 °C -9.5 °F /  -23.1 °C 1001.2in /  33900.6hPa East 0.6mph /  1km/h 11.1mph /  17.9km/h 80% 0.0in /  0mm WeatherDisplay:10.37 W/m2 FEW
02:03 -6.7 °F /  -21.5 °C -9.4 °F /  -23 °C 1001.2in /  33900.6hPa SE 5.0mph /  8km/h 11.1mph /  17.9km/h 81% 0.0in /  0mm WeatherDisplay:10.37 W/m2 FEW
02:08 -6.7 °F /  -21.5 °C -9.3 °F /  -22.9 °C 1001.2in /  33900.6hPa South 10.1mph /  16.3km/h 20.4mph /  32.8km/h 82% 0.0in /  0mm WeatherDisplay:10.37 W/m2 FEW
02:19 -6.6 °F /  -21.4 °C -9.2 °F /  -22.9 °C 1001.2in /  33900.6hPa SE 17.4mph /  28km/h 24.1mph /  38.8km/h 82% 0.0in /  0mm WeatherDisplay:10.37 W/m2 FEW
02:24 -6.5 °F /  -21.4 °C -9.1 °F /  -22.8 °C 1001.2in /  33900.6hPa ESE 7.7mph /  12.4km/h 18.5mph /  29.8km/h 82% 0.0in /  0mm WeatherDisplay:10.37 W/m2 FEW
02:30 -6.5 °F /  -21.4 °C -8.9 °F /  -22.7 °C 1000.9in /  33890.5hPa SE 6.4mph /  10.3km/h 13.0mph /  20.9km/h 83% 0.0in /  0mm WeatherDisplay:10.37 W/m2 FEW
02:40 -6.4 °F /  -21.3 °C -8.8 °F /  -22.7 °C 1001.2in /  33900.6hPa ESE 4.3mph /  6.9km/h 5.6mph /  9km/h 83% 0.0in /  0mm WeatherDisplay:10.37 W/m2 FEW
02:45 -6.4 °F /  -21.3 °C -8.8 °F /  -22.7 °C 1000.9in /  33890.5hPa SE 5.0mph /  8km/h 11.1mph /  17.9km/h 83% 0.0in /  0mm WeatherDisplay:10.37 W/m2 FEW
02:50 -6.4 °F /  -21.3 °C -8.8 °F /  -22.7 °C 1000.9in /  33890.5hPa SSE 10.0mph /  16.1km/h 22.2mph /  35.7km/h 83% 0.0in /  0mm WeatherDisplay:10.37 W/m2 FEW
02:55 -6.4 °F /  -21.3 °C -8.8 °F /  -22.7 °C 1000.9in /  33890.5hPa ENE 7.7mph /  12.4km/h 14.8mph /  23.8km/h 83% 0.0in /  0mm WeatherDisplay:10.37 W/m2 FEW
03:04 -6.5 °F /  -21.4 °C -9.1 °F /  -22.8 °C 1000.6in /  33880.3hPa SSE 14.3mph /  23km/h 22.5mph /  36.2km/h 82% 0.0in /  0mm WeatherDisplay:10.37 W/m2 FEW
03:15 -6.6 °F /  -21.4 °C -9.1 °F /  -22.8 °C 1000.6in /  33880.3hPa SE 4.5mph /  7.2km/h 16.1mph /  25.9km/h 82% 0.0in /  0mm WeatherDisplay:10.37 W/m2 FEW
03:20 -6.7 °F /  -21.5 °C -9.4 °F /  -23 °C 1000.6in /  33880.3hPa NE 8.7mph /  14km/h 22.2mph /  35.7km/h 81% 0.0in /  0mm WeatherDisplay:10.37 W/m2 FEW
03:26 -6.7 °F /  -21.5 °C -9.4 °F /  -23 °C 1000.6in /  33880.3hPa ESE 14.6mph /  23.5km/h 31.5mph /  50.7km/h 81% 0.0in /  0mm WeatherDisplay:10.37 W/m2 FEW
03:35 -6.8 °F /  -21.6 °C -9.5 °F /  -23.1 °C 1000.6in /  33880.3hPa SE 9.8mph /  15.8km/h 20.4mph /  32.8km/h 81% 0.0in /  0mm WeatherDisplay:10.37 W/m2 FEW
03:47 -6.8 °F /  -21.6 °C -9.6 °F /  -23.1 °C 1000.6in /  33880.3hPa ESE 12.1mph /  19.5km/h 24.1mph /  38.8km/h 81% 0.0in /  0mm WeatherDisplay:10.37 W/m2 FEW
03:59 -6.9 °F /  -21.6 °C -9.6 °F /  -23.1 °C 1000.2in /  33866.8hPa ESE 14.5mph /  23.3km/h 22.2mph /  35.7km/h 81% 0.0in /  0mm WeatherDisplay:10.37 W/m2 FEW
04:09 -6.9 °F /  -21.6 °C -9.6 °F /  -23.1 °C 1000.2in /  33866.8hPa ESE 11.3mph /  18.2km/h 24.1mph /  38.8km/h 81% 0.0in /  0mm WeatherDisplay:10.37 W/m2 FEW
04:14 -6.9 °F /  -21.6 °C -9.7 °F /  -23.2 °C 1000.2in /  33866.8hPa SSE 16.9mph /  27.2km/h 38.9mph /  62.6km/h 81% 0.0in /  0mm WeatherDisplay:10.37 W/m2 FEW
04:19 -6.9 °F /  -21.6 °C -9.6 °F /  -23.1 °C 1000.6in /  33880.3hPa East 10.1mph /  16.3km/h 24.1mph /  38.8km/h 81% 0.0in /  0mm WeatherDisplay:10.37 W/m2 FEW
04:31 -6.9 °F /  -21.6 °C -9.7 °F /  -23.2 °C 1000.6in /  33880.3hPa East 7.2mph /  11.6km/h 18.5mph /  29.8km/h 81% 0.0in /  0mm WeatherDisplay:10.37 W/m2 FEW
04:38 -6.9 °F /  -21.6 °C -9.8 °F /  -23.2 °C 1000.6in /  33880.3hPa East 12.2mph /  19.6km/h 18.5mph /  29.8km/h 80% 0.0in /  0mm WeatherDisplay:10.37 W/m2 FEW
04:49 -6.9 °F /  -21.6 °C -9.8 °F /  -23.2 °C 1000.2in /  33866.8hPa SE 11.9mph /  19.2km/h 20.4mph /  32.8km/h 80% 0.0in /  0mm WeatherDisplay:10.37 W/m2 FEW
04:59 -6.9 °F /  -21.6 °C -9.8 °F /  -23.2 °C 1000.2in /  33866.8hPa SSE 12.4mph /  20km/h 22.2mph /  35.7km/h 80% 0.0in /  0mm WeatherDisplay:10.37 W/m2 FEW
05:06 -6.9 °F /  -21.6 °C -9.8 °F /  -23.2 °C 1000.2in /  33866.8hPa ESE 6.1mph /  9.8km/h 25.9mph /  41.7km/h 80% 0.0in /  0mm WeatherDisplay:10.37 W/m2 FEW
05:11 -7.0 °F /  -21.7 °C -9.9 °F /  -23.3 °C 1000.2in /  33866.8hPa ENE 10.9mph /  17.5km/h 18.5mph /  29.8km/h 80% 0.0in /  0mm WeatherDisplay:10.37 W/m2 FEW
05:19 -7.0 °F /  -21.7 °C -9.9 °F /  -23.3 °C 1000.2in /  33866.8hPa SE 6.0mph /  9.7km/h 13.0mph /  20.9km/h 80% 0.0in /  0mm WeatherDisplay:10.37 W/m2 FEW
05:27 -7.0 °F /  -21.7 °C -9.7 °F /  -23.2 °C 999.9in /  33856.6hPa East 3.4mph /  5.5km/h 6.4mph /  10.3km/h 81% 0.0in /  0mm WeatherDisplay:10.37 W/m2 FEW
05:33 -6.9 °F /  -21.6 °C -9.7 °F /  -23.2 °C 999.9in /  33856.6hPa SSW 13.4mph /  21.6km/h 20.4mph /  32.8km/h 81% 0.0in /  0mm WeatherDisplay:10.37 W/m2 FEW
05:38 -6.9 °F /  -21.6 °C -9.3 °F /  -22.9 °C 999.9in /  33856.6hPa ESE 10.3mph /  16.6km/h 16.7mph /  26.9km/h 83% 0.0in /  0mm WeatherDisplay:10.37 W/m2 FEW
05:53 -6.9 °F /  -21.6 °C -9.2 °F /  -22.9 °C 999.9in /  33856.6hPa SSW 4.5mph /  7.2km/h 11.1mph /  17.9km/h 84% 0.0in /  0mm WeatherDisplay:10.37 W/m2 FEW
06:01 -6.9 °F /  -21.6 °C -9.2 °F /  -22.9 °C 999.9in /  33856.6hPa ENE 7.4mph /  11.9km/h 18.5mph /  29.8km/h 84% 0.0in /  0mm WeatherDisplay:10.37 W/m2 FEW
06:06 -7.0 °F /  -21.7 °C -9.4 °F /  -23 °C 999.9in /  33856.6hPa ESE 9.5mph /  15.3km/h 22.2mph /  35.7km/h 83% 0.0in /  0mm WeatherDisplay:10.37 W/m2 FEW
06:14 -7.0 °F /  -21.7 °C -9.2 °F /  -22.9 °C 999.9in /  33856.6hPa SE 8.7mph /  14km/h 18.5mph /  29.8km/h 84% 0.0in /  0mm WeatherDisplay:10.37 W/m2 FEW
06:20 -7.0 °F /  -21.7 °C -9.2 °F /  -22.9 °C 999.5in /  33843.1hPa SE 6.6mph /  10.6km/h 13.0mph /  20.9km/h 84% 0.0in /  0mm WeatherDisplay:10.37 W/m2 FEW
06:36 -7.1 °F /  -21.7 °C -9.3 °F /  -22.9 °C 999.5in /  33843.1hPa NE 7.2mph /  11.6km/h 13.0mph /  20.9km/h 84% 0.0in /  0mm WeatherDisplay:10.37 W/m2 FEW
06:44 -7.1 °F /  -21.7 °C -9.3 °F /  -22.9 °C 999.5in /  33843.1hPa SE 2.9mph /  4.7km/h 14.8mph /  23.8km/h 84% 0.0in /  0mm WeatherDisplay:10.37 W/m2 FEW
06:50 -7.1 °F /  -21.7 °C -9.2 °F /  -22.9 °C 999.2in /  33832.9hPa East 9.5mph /  15.3km/h 14.8mph /  23.8km/h 85% 0.0in /  0mm WeatherDisplay:10.37 W/m2 FEW
06:55 -7.1 °F /  -21.7 °C -9.2 °F /  -22.9 °C 999.2in /  33832.9hPa SSE 7.9mph /  12.7km/h 22.2mph /  35.7km/h 85% 0.0in /  0mm WeatherDisplay:10.37 W/m2 FEW
07:04 -7.1 °F /  -21.7 °C -9.2 °F /  -22.9 °C 999.2in /  33832.9hPa East 8.7mph /  14km/h 14.8mph /  23.8km/h 85% 0.0in /  0mm WeatherDisplay:10.37 W/m2 FEW
07:09 -7.1 °F /  -21.7 °C -9.2 °F /  -22.9 °C 999.2in /  33832.9hPa East 1.9mph /  3.1km/h 5.6mph /  9km/h 85% 0.0in /  0mm WeatherDisplay:10.37 W/m2 FEW
07:14 -7.1 °F /  -21.7 °C -9.2 °F /  -22.9 °C 999.2in /  33832.9hPa SSE 10.6mph /  17.1km/h 22.5mph /  36.2km/h 85% 0.0in /  0mm WeatherDisplay:10.37 W/m2 FEW
07:19 -7.1 °F /  -21.7 °C -9.2 °F /  -22.9 °C 999.2in /  33832.9hPa ESE 7.4mph /  11.9km/h 20.4mph /  32.8km/h 85% 0.0in /  0mm WeatherDisplay:10.37 W/m2 FEW
07:29 -7.0 °F /  -21.7 °C -9.2 °F /  -22.9 °C 999.2in /  33832.9hPa SSE 6.4mph /  10.3km/h 22.2mph /  35.7km/h 84% 0.0in /  0mm WeatherDisplay:10.37 W/m2 FEW
07:36 -6.9 °F /  -21.6 °C -9.2 °F /  -22.9 °C 998.9in /  33822.8hPa ESE 9.0mph /  14.5km/h 18.5mph /  29.8km/h 84% 0.0in /  0mm WeatherDisplay:10.37 W/m2 FEW
07:42 -6.9 °F /  -21.6 °C -9.2 °F /  -22.9 °C 998.9in /  33822.8hPa ESE 11.7mph /  18.8km/h 14.8mph /  23.8km/h 84% 0.0in /  0mm WeatherDisplay:10.37 W/m2 FEW
07:47 -6.9 °F /  -21.6 °C -9.3 °F /  -22.9 °C 998.9in /  33822.8hPa ENE 7.7mph /  12.4km/h 29.6mph /  47.6km/h 83% 0.0in /  0mm WeatherDisplay:10.37 W/m2 FEW
07:58 -6.8 °F /  -21.6 °C -9.2 °F /  -22.9 °C 998.9in /  33822.8hPa SSE 14.0mph /  22.5km/h 20.4mph /  32.8km/h 83% 0.0in /  0mm WeatherDisplay:10.37 W/m2 FEW
08:03 -6.8 °F /  -21.6 °C -9.3 °F /  -22.9 °C 998.9in /  33822.8hPa SSE 8.8mph /  14.2km/h 20.4mph /  32.8km/h 82% 0.0in /  0mm WeatherDisplay:10.37 W/m2 FEW
08:10 -6.8 °F /  -21.6 °C -9.3 °F /  -22.9 °C 998.9in /  33822.8hPa SE 9.3mph /  15km/h 22.5mph /  36.2km/h 82% 0.0in /  0mm WeatherDisplay:10.37 W/m2 FEW
08:15 -6.7 °F /  -21.5 °C -9.3 °F /  -22.9 °C 998.9in /  33822.8hPa SE 9.3mph /  15km/h 18.5mph /  29.8km/h 82% 0.0in /  0mm WeatherDisplay:10.37 W/m2 FEW
08:25 -6.7 °F /  -21.5 °C -9.3 °F /  -22.9 °C 998.9in /  33822.8hPa SE 1.4mph /  2.3km/h 5.6mph /  9km/h 82% 0.0in /  0mm WeatherDisplay:10.37 W/m2 FEW
08:31 -6.7 °F /  -21.5 °C -9.2 °F /  -22.9 °C 998.9in /  33822.8hPa SSE 5.5mph /  8.9km/h 14.8mph /  23.8km/h 82% 0.0in /  0mm WeatherDisplay:10.37 W/m2 FEW
08:36 -6.7 °F /  -21.5 °C -9.2 °F /  -22.9 °C 998.9in /  33822.8hPa ESE 6.4mph /  10.3km/h 16.7mph /  26.9km/h 82% 0.0in /  0mm WeatherDisplay:10.37 W/m2 FEW
08:49 -6.7 °F /  -21.5 °C -9.2 °F /  -22.9 °C 998.9in /  33822.8hPa SE 8.5mph /  13.7km/h 24.1mph /  38.8km/h 82% 0.0in /  0mm WeatherDisplay:10.37 W/m2 FEW
08:54 -6.7 °F /  -21.5 °C -9.2 °F /  -22.9 °C 998.9in /  33822.8hPa South 15.8mph /  25.4km/h 24.1mph /  38.8km/h 82% 0.0in /  0mm WeatherDisplay:10.37 W/m2 FEW
09:01 -6.7 °F /  -21.5 °C -9.2 °F /  -22.9 °C 998.9in /  33822.8hPa SSW 7.2mph /  11.6km/h 14.8mph /  23.8km/h 82% 0.0in /  0mm WeatherDisplay:10.37 W/m2 FEW
09:06 -6.7 °F /  -21.5 °C -9.3 °F /  -22.9 °C 998.9in /  33822.8hPa ESE 3.2mph /  5.1km/h 8.0mph /  12.9km/h 82% 0.0in /  0mm WeatherDisplay:10.37 W/m2 FEW
09:16 -6.7 °F /  -21.5 °C -9.4 °F /  -23 °C 998.9in /  33822.8hPa SE 9.5mph /  15.3km/h 20.4mph /  32.8km/h 81% 0.0in /  0mm WeatherDisplay:10.37 W/m2 FEW
09:29 -6.8 °F /  -21.6 °C -9.3 °F /  -22.9 °C 998.9in /  33822.8hPa East 6.8mph /  10.9km/h 16.7mph /  26.9km/h 82% 0.0in /  0mm WeatherDisplay:10.37 W/m2 FEW
09:40 -6.8 °F /  -21.6 °C -9.4 °F /  -23 °C 998.9in /  33822.8hPa East 5.3mph /  8.5km/h 9.7mph /  15.6km/h 82% 0.0in /  0mm WeatherDisplay:10.37 W/m2 FEW
09:45 -6.9 °F /  -21.6 °C -9.4 °F /  -23 °C 998.9in /  33822.8hPa SE 9.5mph /  15.3km/h 18.5mph /  29.8km/h 82% 0.0in /  0mm WeatherDisplay:10.37 W/m2 FEW
09:50 -6.9 °F /  -21.6 °C -9.4 °F /  -23 °C 998.9in /  33822.8hPa SE 1.4mph /  2.3km/h 14.8mph /  23.8km/h 82% 0.0in /  0mm WeatherDisplay:10.37 W/m2 FEW
09:55 -6.9 °F /  -21.6 °C -9.3 °F /  -22.9 °C 998.9in /  33822.8hPa East 12.2mph /  19.6km/h 22.2mph /  35.7km/h 83% 0.0in /  0mm WeatherDisplay:10.37 W/m2 FEW
10:13 -7.0 °F /  -21.7 °C -9.2 °F /  -22.9 °C 998.9in /  33822.8hPa South 9.5mph /  15.3km/h 14.8mph /  23.8km/h 84% 0.0in /  0mm WeatherDisplay:10.37 W/m2 FEW
10:18 -7.0 °F /  -21.7 °C -9.2 °F /  -22.9 °C 998.9in /  33822.8hPa East 6.6mph /  10.6km/h 16.7mph /  26.9km/h 84% 0.0in /  0mm WeatherDisplay:10.37 W/m2 FEW
10:23 -7.0 °F /  -21.7 °C -9.1 °F /  -22.8 °C 998.9in /  33822.8hPa SE 5.5mph /  8.9km/h 13.0mph /  20.9km/h 85% 0.0in /  0mm WeatherDisplay:10.37 W/m2 FEW
10:34 -7.1 °F /  -21.7 °C -9.0 °F /  -22.8 °C 998.9in /  33822.8hPa South 5.6mph /  9km/h 16.1mph /  25.9km/h 86% 0.0in /  0mm WeatherDisplay:10.37 W/m2 FEW
10:39 -7.1 °F /  -21.7 °C -9.0 °F /  -22.8 °C 998.5in /  33809.2hPa ESE 3.2mph /  5.1km/h 7.4mph /  11.9km/h 86% 0.0in /  0mm WeatherDisplay:10.37 W/m2 FEW
10:49 -7.1 °F /  -21.7 °C -9.0 °F /  -22.8 °C 998.5in /  33809.2hPa SSW 9.2mph /  14.8km/h 24.1mph /  38.8km/h 86% 0.0in /  0mm WeatherDisplay:10.37 W/m2 FEW
10:59 -7.1 °F /  -21.7 °C -8.9 °F /  -22.7 °C 998.5in /  33809.2hPa ESE 4.7mph /  7.6km/h 11.1mph /  17.9km/h 87% 0.0in /  0mm WeatherDisplay:10.37 W/m2 FEW
11:04 -7.2 °F /  -21.8 °C -8.8 °F /  -22.7 °C 998.5in /  33809.2hPa SE 3.9mph /  6.3km/h 12.9mph /  20.8km/h 88% 0.0in /  0mm WeatherDisplay:10.37 W/m2 FEW
11:09 -7.2 °F /  -21.8 °C -8.8 °F /  -22.7 °C 998.5in /  33809.2hPa ESE 4.3mph /  6.9km/h 9.3mph /  15km/h 88% 0.0in /  0mm WeatherDisplay:10.37 W/m2 FEW
11:14 -7.2 °F /  -21.8 °C -8.8 °F /  -22.7 °C 998.5in /  33809.2hPa SE 5.1mph /  8.2km/h 13.0mph /  20.9km/h 88% 0.0in /  0mm WeatherDisplay:10.37 W/m2 FEW
11:19 -7.1 °F /  -21.7 °C -8.6 °F /  -22.6 °C 998.5in /  33809.2hPa ESE 5.5mph /  8.9km/h 13.0mph /  20.9km/h 89% 0.0in /  0mm WeatherDisplay:10.37 W/m2 FEW
11:24 -7.1 °F /  -21.7 °C -8.6 °F /  -22.6 °C 998.5in /  33809.2hPa South 1.1mph /  1.8km/h 3.2mph /  5.1km/h 89% 0.0in /  0mm WeatherDisplay:10.37 W/m2 FEW
11:44 -7.1 °F /  -21.7 °C -8.6 °F /  -22.6 °C 998.2in /  33799.1hPa ESE 7.4mph /  11.9km/h 16.7mph /  26.9km/h 89% 0.0in /  0mm WeatherDisplay:10.37 W/m2 FEW
11:49 -7.2 °F /  -21.8 °C -8.7 °F /  -22.6 °C 998.2in /  33799.1hPa SE 6.0mph /  9.7km/h 11.1mph /  17.9km/h 89% 0.0in /  0mm WeatherDisplay:10.37 W/m2 FEW
11:54 -7.2 °F /  -21.8 °C -8.7 °F /  -22.6 °C 998.2in /  33799.1hPa SE 10.6mph /  17.1km/h 14.8mph /  23.8km/h 89% 0.0in /  0mm WeatherDisplay:10.37 W/m2 FEW
11:59 -7.2 °F /  -21.8 °C -8.7 °F /  -22.6 °C 998.2in /  33799.1hPa SE 10.9mph /  17.5km/h 22.2mph /  35.7km/h 89% 0.0in /  0mm WeatherDisplay:10.37 W/m2 FEW
12:04 -7.2 °F /  -21.8 °C -8.6 °F /  -22.6 °C 997.9in /  33788.9hPa SE 6.0mph /  9.7km/h 13.0mph /  20.9km/h 90% 0.0in /  0mm WeatherDisplay:10.37 W/m2 FEW
12:13 -7.2 °F /  -21.8 °C -8.7 °F /  -22.6 °C 997.9in /  33788.9hPa South 5.3mph /  8.5km/h 9.3mph /  15km/h 89% 0.0in /  0mm WeatherDisplay:10.37 W/m2 FEW
12:26 -7.2 °F /  -21.8 °C -8.7 °F /  -22.6 °C 997.9in /  33788.9hPa ESE 9.5mph /  15.3km/h 18.5mph /  29.8km/h 89% 0.0in /  0mm WeatherDisplay:10.37 W/m2 FEW
12:31 -7.1 °F /  -21.7 °C -8.6 °F /  -22.6 °C 997.9in /  33788.9hPa SE 0.2mph /  0.3km/h 11.1mph /  17.9km/h 89% 0.0in /  0mm WeatherDisplay:10.37 W/m2 FEW
12:39 -7.1 °F /  -21.7 °C -8.4 °F /  -22.4 °C 997.9in /  33788.9hPa ESE 2.3mph /  3.7km/h 5.6mph /  9km/h 90% 0.0in /  0mm WeatherDisplay:10.37 W/m2 FEW
12:47 -7.1 °F /  -21.7 °C -8.6 °F /  -22.6 °C 997.9in /  33788.9hPa SE 5.1mph /  8.2km/h 13.0mph /  20.9km/h 89% 0.0in /  0mm WeatherDisplay:10.37 W/m2 FEW
12:55 -7.2 °F /  -21.8 °C -8.5 °F /  -22.5 °C 997.9in /  33788.9hPa East 1.6mph /  2.6km/h 5.6mph /  9km/h 90% 0.0in /  0mm WeatherDisplay:10.37 W/m2 FEW
13:00 -7.1 °F /  -21.7 °C -8.6 °F /  -22.6 °C 997.5in /  33775.4hPa ENE 3.5mph /  5.6km/h 9.3mph /  15km/h 89% 0.0in /  0mm WeatherDisplay:10.37 W/m2 FEW
13:05 -7.1 °F /  -21.7 °C -8.6 °F /  -22.6 °C 997.5in /  33775.4hPa ENE 6.1mph /  9.8km/h 6.1mph /  9.8km/h 89% 0.0in /  0mm WeatherDisplay:10.37 W/m2 FEW
13:12 -7.1 °F /  -21.7 °C -8.6 °F /  -22.6 °C 997.5in /  33775.4hPa East 1.1mph /  1.8km/h 7.4mph /  11.9km/h 89% 0.3in /  7.62mm WeatherDisplay:10.37 W/m2 RA
13:17 -7.1 °F /  -21.7 °C -8.7 °F /  -22.6 °C 997.5in /  33775.4hPa SSW 9.0mph /  14.5km/h 18.5mph /  29.8km/h 88% 0.3in /  7.62mm WeatherDisplay:10.37 W/m2 FEW
13:22 -7.1 °F /  -21.7 °C -8.7 °F /  -22.6 °C 997.5in /  33775.4hPa Calm   1.9mph /  3.1km/h 88% 0.3in /  7.62mm WeatherDisplay:10.37 W/m2 FEW
13:31 -7.1 °F /  -21.7 °C -8.7 °F /  -22.6 °C 997.5in /  33775.4hPa ENE 1.6mph /  2.6km/h 5.6mph /  9km/h 88% 0.3in /  7.62mm WeatherDisplay:10.37 W/m2 FEW
13:36 -7.1 °F /  -21.7 °C -8.8 °F /  -22.7 °C 997.5in /  33775.4hPa ESE 4.8mph /  7.7km/h 9.7mph /  15.6km/h 88% 0.3in /  7.62mm WeatherDisplay:10.37 W/m2 FEW
13:57 -7.3 °F /  -21.8 °C -8.9 °F /  -22.7 °C 997.5in /  33775.4hPa ENE 2.6mph /  4.2km/h 5.6mph /  9km/h 88% 0.3in /  7.62mm WeatherDisplay:10.37 W/m2 FEW
14:02 -7.3 °F /  -21.8 °C -8.9 °F /  -22.7 °C 997.2in /  33765.2hPa ESE 3.7mph /  6km/h 5.6mph /  9km/h 88% 0.3in /  7.62mm WeatherDisplay:10.37 W/m2 FEW
14:07 -7.3 °F /  -21.8 °C -8.9 °F /  -22.7 °C 997.5in /  33775.4hPa ESE 4.0mph /  6.4km/h 11.1mph /  17.9km/h 88% 0.0in /  0mm WeatherDisplay:10.37 W/m2 FEW
14:12 -7.3 °F /  -21.8 °C -8.9 °F /  -22.7 °C 997.5in /  33775.4hPa SSE 5.6mph /  9km/h 11.1mph /  17.9km/h 88% 0.0in /  0mm WeatherDisplay:10.37 W/m2 FEW
14:17 -7.2 °F /  -21.8 °C -8.9 °F /  -22.7 °C 997.2in /  33765.2hPa ESE 2.1mph /  3.4km/h 9.3mph /  15km/h 88% 0.0in /  0mm WeatherDisplay:10.37 W/m2 FEW
14:26 -7.3 °F /  -21.8 °C -8.8 °F /  -22.7 °C 997.5in /  33775.4hPa ESE 0.6mph /  1km/h 3.7mph /  6km/h 89% 0.0in /  0mm WeatherDisplay:10.37 W/m2 FEW
14:37 -7.2 °F /  -21.8 °C -8.7 °F /  -22.6 °C 997.2in /  33765.2hPa SE 2.7mph /  4.3km/h 6.4mph /  10.3km/h 89% 0.0in /  0mm WeatherDisplay:10.37 W/m2 FEW
14:45 -7.2 °F /  -21.8 °C -8.6 °F /  -22.6 °C 997.2in /  33765.2hPa SE 2.6mph /  4.2km/h 5.6mph /  9km/h 90% 0.0in /  0mm WeatherDisplay:10.37 W/m2 FEW
14:55 -7.1 °F /  -21.7 °C -8.5 °F /  -22.5 °C 997.2in /  33765.2hPa ESE 5.1mph /  8.2km/h 11.1mph /  17.9km/h 90% 0.0in /  0mm WeatherDisplay:10.37 W/m2 FEW
15:06 -7.0 °F /  -21.7 °C -8.4 °F /  -22.4 °C 997.2in /  33765.2hPa SE 5.1mph /  8.2km/h 11.1mph /  17.9km/h 90% 0.0in /  0mm WeatherDisplay:10.37 W/m2 FEW
15:11 -6.9 °F /  -21.6 °C -8.3 °F /  -22.4 °C 997.2in /  33765.2hPa ESE 3.5mph /  5.6km/h 8.0mph /  12.9km/h 90% 0.0in /  0mm WeatherDisplay:10.37 W/m2 FEW
15:16 -6.9 °F /  -21.6 °C -8.2 °F /  -22.3 °C 997.2in /  33765.2hPa SSE 7.1mph /  11.4km/h 7.4mph /  11.9km/h 91% 0.0in /  0mm WeatherDisplay:10.37 W/m2 FEW
15:25 -6.9 °F /  -21.6 °C -8.3 °F /  -22.4 °C 997.2in /  33765.2hPa ENE 2.4mph /  3.9km/h 5.6mph /  9km/h 90% 0.0in /  0mm WeatherDisplay:10.37 W/m2 FEW
15:32 -6.9 °F /  -21.6 °C -8.3 °F /  -22.4 °C 997.2in /  33765.2hPa SE 3.4mph /  5.5km/h 13.0mph /  20.9km/h 90% 0.0in /  0mm WeatherDisplay:10.37 W/m2 FEW
15:45 -6.8 °F /  -21.6 °C -8.1 °F /  -22.3 °C 997.2in /  33765.2hPa SSE 3.1mph /  5km/h 9.7mph /  15.6km/h 91% 0.0in /  0mm WeatherDisplay:10.37 W/m2 FEW
15:50 -6.8 °F /  -21.6 °C -8.2 °F /  -22.3 °C 997.2in /  33765.2hPa Calm   5.6mph /  9km/h 90% 0.0in /  0mm WeatherDisplay:10.37 W/m2 FEW
15:58 -6.8 °F /  -21.6 °C -8.2 °F /  -22.3 °C 997.2in /  33765.2hPa East 1.0mph /  1.6km/h 6.4mph /  10.3km/h 90% 0.0in /  0mm WeatherDisplay:10.37 W/m2 FEW
16:09 -6.8 °F /  -21.6 °C -8.0 °F /  -22.2 °C 996.8in /  33751.6hPa SE 1.3mph /  2.1km/h 5.6mph /  9km/h 91% 0.0in /  0mm WeatherDisplay:10.37 W/m2 FEW
16:16 -6.8 °F /  -21.6 °C -8.0 °F /  -22.2 °C 996.8in /  33751.6hPa ENE 5.1mph /  8.2km/h 7.4mph /  11.9km/h 91% 0.0in /  0mm WeatherDisplay:10.37 W/m2 FEW
16:23 -6.8 °F /  -21.6 °C -8.0 °F /  -22.2 °C 996.8in /  33751.6hPa ENE 1.3mph /  2.1km/h 3.7mph /  6km/h 91% 0.0in /  0mm WeatherDisplay:10.37 W/m2 FEW
16:34 -6.7 °F /  -21.5 °C -7.9 °F /  -22.2 °C 996.8in /  33751.6hPa ESE 1.6mph /  2.6km/h 5.6mph /  9km/h 91% 0.3in /  7.62mm WeatherDisplay:10.37 W/m2 RA
16:45 -6.7 °F /  -21.5 °C -7.9 °F /  -22.2 °C 996.8in /  33751.6hPa ENE 2.6mph /  4.2km/h 5.6mph /  9km/h 91% 0.3in /  7.62mm WeatherDisplay:10.37 W/m2 FEW
16:51 -6.6 °F /  -21.4 °C -7.7 °F /  -22.1 °C 996.8in /  33751.6hPa Calm   3.7mph /  6km/h 92% 0.3in /  7.62mm WeatherDisplay:10.37 W/m2 FEW
17:00 -6.6 °F /  -21.4 °C -7.7 °F /  -22.1 °C 996.8in /  33751.6hPa ESE 1.1mph /  1.8km/h 5.6mph /  9km/h 92% 0.3in /  7.62mm WeatherDisplay:10.37 W/m2 FEW
17:10 -6.5 °F /  -21.4 °C -7.6 °F /  -22 °C 996.8in /  33751.6hPa ENE 3.5mph /  5.6km/h 5.6mph /  9km/h 92% 0.5in /  12.7mm WeatherDisplay:10.37 W/m2 RA
17:17 -6.4 °F /  -21.3 °C -7.6 °F /  -22 °C 996.8in /  33751.6hPa Calm     92% 0.5in /  12.7mm WeatherDisplay:10.37 W/m2 FEW
17:22 -6.4 °F /  -21.3 °C -7.5 °F /  -21.9 °C 996.8in /  33751.6hPa ENE 0.3mph /  0.5km/h 4.8mph /  7.7km/h 92% 0.5in /  12.7mm WeatherDisplay:10.37 W/m2 FEW
17:28 -6.3 °F /  -21.3 °C -7.4 °F /  -21.9 °C 996.8in /  33751.6hPa SE 0.5mph /  0.8km/h 5.6mph /  9km/h 92% 0.5in /  12.7mm WeatherDisplay:10.37 W/m2 RA
17:33 -6.3 °F /  -21.3 °C -7.4 °F /  -21.9 °C 996.8in /  33751.6hPa Calm     92% 0.5in /  12.7mm WeatherDisplay:10.37 W/m2 RA
17:39 -6.3 °F /  -21.3 °C -7.4 °F /  -21.9 °C 996.8in /  33751.6hPa Calm     92% 0.5in /  12.7mm WeatherDisplay:10.37 W/m2 FEW
17:45 -6.3 °F /  -21.3 °C -7.4 °F /  -21.9 °C 996.8in /  33751.6hPa Calm     92% 0.5in /  12.7mm WeatherDisplay:10.37 W/m2 FEW
17:58 -6.3 °F /  -21.3 °C -7.4 °F /  -21.9 °C 996.8in /  33751.6hPa SE 1.1mph /  1.8km/h 9.3mph /  15km/h 92% 0.5in /  12.7mm WeatherDisplay:10.37 W/m2 RA
18:04 -6.2 °F /  -21.2 °C -7.3 °F /  -21.8 °C 996.8in /  33751.6hPa ESE 3.1mph /  5km/h 11.1mph /  17.9km/h 92% 0.5in /  12.7mm WeatherDisplay:10.37 W/m2 FEW
18:09 -6.3 °F /  -21.3 °C -7.4 °F /  -21.9 °C 996.8in /  33751.6hPa ESE 2.6mph /  4.2km/h 6.4mph /  10.3km/h 92% 0.5in /  12.7mm WeatherDisplay:10.37 W/m2 FEW
18:14 -6.2 °F /  -21.2 °C -7.3 °F /  -21.8 °C 996.5in /  33741.5hPa South 0.2mph /  0.3km/h 3.7mph /  6km/h 92% 0.5in /  12.7mm WeatherDisplay:10.37 W/m2 FEW
18:19 -6.3 °F /  -21.3 °C -7.4 °F /  -21.9 °C 996.5in /  33741.5hPa SSE 0.8mph /  1.3km/h 5.6mph /  9km/h 92% 0.5in /  12.7mm WeatherDisplay:10.37 W/m2 FEW
18:24 -6.2 °F /  -21.2 °C -7.3 °F /  -21.8 °C 996.8in /  33751.6hPa SE 0.6mph /  1km/h 7.4mph /  11.9km/h 92% 0.5in /  12.7mm WeatherDisplay:10.37 W/m2 FEW
18:41 -6.2 °F /  -21.2 °C -7.3 °F /  -21.8 °C 996.8in /  33751.6hPa ENE 2.4mph /  3.9km/h 5.6mph /  9km/h 92% 0.3in /  7.62mm WeatherDisplay:10.37 W/m2 FEW
18:49 -6.2 °F /  -21.2 °C -7.3 °F /  -21.8 °C 996.8in /  33751.6hPa ESE 0.5mph /  0.8km/h 5.6mph /  9km/h 92% 0.3in /  7.62mm WeatherDisplay:10.37 W/m2 FEW
18:59 -6.2 °F /  -21.2 °C -7.3 °F /  -21.8 °C 996.8in /  33751.6hPa SE 3.2mph /  5.1km/h 9.3mph /  15km/h 92% 0.0in /  0mm WeatherDisplay:10.37 W/m2 FEW
19:04 -6.2 °F /  -21.2 °C -7.3 °F /  -21.8 °C 996.8in /  33751.6hPa East 1.4mph /  2.3km/h 5.6mph /  9km/h 92% 0.0in /  0mm WeatherDisplay:10.37 W/m2 FEW
19:19 -6.1 °F /  -21.2 °C -7.2 °F /  -21.8 °C 996.8in /  33751.6hPa Calm     92% 0.3in /  7.62mm WeatherDisplay:10.37 W/m2 FEW
19:26 -6.1 °F /  -21.2 °C -7.2 °F /  -21.8 °C 996.8in /  33751.6hPa SE 2.9mph /  4.7km/h 7.4mph /  11.9km/h 92% 0.3in /  7.62mm WeatherDisplay:10.37 W/m2 FEW
19:34 -6.1 °F /  -21.2 °C -7.2 °F /  -21.8 °C 996.8in /  33751.6hPa Calm     92% 0.3in /  7.62mm WeatherDisplay:10.37 W/m2 FEW
19:39 -6.1 °F /  -21.2 °C -7.2 °F /  -21.8 °C 996.8in /  33751.6hPa SE 0.2mph /  0.3km/h 1.9mph /  3.1km/h 92% 0.3in /  7.62mm WeatherDisplay:10.37 W/m2 FEW
19:52 -6.0 °F /  -21.1 °C -7.1 °F /  -21.7 °C 996.8in /  33751.6hPa Calm     92% 0.3in /  7.62mm WeatherDisplay:10.37 W/m2 FEW
19:58 -6.0 °F /  -21.1 °C -7.1 °F /  -21.7 °C 996.8in /  33751.6hPa SE 1.1mph /  1.8km/h 5.6mph /  9km/h 92% 0.3in /  7.62mm WeatherDisplay:10.37 W/m2 FEW
20:08 -5.9 °F /  -21.1 °C -7.1 °F /  -21.7 °C 996.8in /  33751.6hPa Calm     92% 0.0in /  0mm WeatherDisplay:10.37 W/m2 FEW
20:13 -5.9 °F /  -21.1 °C -7.0 °F /  -21.7 °C 996.8in /  33751.6hPa ESE 1.3mph /  2.1km/h 4.8mph /  7.7km/h 92% 0.0in /  0mm WeatherDisplay:10.37 W/m2 FEW
20:21 -5.9 °F /  -21.1 °C -7.0 °F /  -21.7 °C 996.8in /  33751.6hPa Calm     92% 0.3in /  7.62mm WeatherDisplay:10.37 W/m2 RA
20:28 -5.8 °F /  -21 °C -6.9 °F /  -21.6 °C 996.8in /  33751.6hPa Calm     92% 0.3in /  7.62mm WeatherDisplay:10.37 W/m2 FEW
20:38 -5.7 °F /  -20.9 °C -6.8 °F /  -21.6 °C 996.5in /  33741.5hPa Calm     92% 0.3in /  7.62mm WeatherDisplay:10.37 W/m2 FEW
20:46 -5.7 °F /  -20.9 °C -6.8 °F /  -21.6 °C 996.5in /  33741.5hPa Calm     92% 0.3in /  7.62mm WeatherDisplay:10.37 W/m2 FEW
20:51 -5.7 °F /  -20.9 °C -6.8 °F /  -21.6 °C 996.5in /  33741.5hPa Calm     92% 0.3in /  7.62mm WeatherDisplay:10.37 W/m2 FEW
20:57 -5.7 °F /  -20.9 °C -6.8 °F /  -21.6 °C 996.5in /  33741.5hPa East 0.2mph /  0.3km/h 3.7mph /  6km/h 92% 0.3in /  7.62mm WeatherDisplay:10.37 W/m2 FEW
21:03 -5.6 °F /  -20.9 °C -6.7 °F /  -21.5 °C 996.5in /  33741.5hPa Calm     92% 0.3in /  7.62mm WeatherDisplay:10.37 W/m2 FEW
21:08 -5.6 °F /  -20.9 °C -6.7 °F /  -21.5 °C 996.5in /  33741.5hPa Calm     92% 0.3in /  7.62mm WeatherDisplay:10.37 W/m2 FEW
21:17 -5.6 °F /  -20.9 °C -6.7 °F /  -21.5 °C 996.5in /  33741.5hPa Calm     92% 0.3in /  7.62mm WeatherDisplay:10.37 W/m2 FEW
21:26 -5.6 °F /  -20.9 °C -6.7 °F /  -21.5 °C 996.8in /  33751.6hPa Calm     92% 0.0in /  0mm WeatherDisplay:10.37 W/m2 FEW
21:34 -5.6 °F /  -20.9 °C -6.7 °F /  -21.5 °C 996.8in /  33751.6hPa Calm     92% 0.0in /  0mm WeatherDisplay:10.37 W/m2 FEW
21:40 -5.5 °F /  -20.8 °C -6.6 °F /  -21.4 °C 996.8in /  33751.6hPa Calm     92% 0.0in /  0mm WeatherDisplay:10.37 W/m2 FEW
21:45 -5.5 °F /  -20.8 °C -6.6 °F /  -21.4 °C 996.8in /  33751.6hPa ENE 1.0mph /  1.6km/h 3.7mph /  6km/h 92% 0.0in /  0mm WeatherDisplay:10.37 W/m2 FEW
21:50 -5.5 °F /  -20.8 °C -6.6 °F /  -21.4 °C 996.8in /  33751.6hPa Calm     92% 0.0in /  0mm WeatherDisplay:10.37 W/m2 FEW
21:55 -5.5 °F /  -20.8 °C -6.6 °F /  -21.4 °C 996.8in /  33751.6hPa Calm     92% 0.0in /  0mm WeatherDisplay:10.37 W/m2 FEW
22:00 -5.4 °F /  -20.8 °C -6.6 °F /  -21.4 °C 996.8in /  33751.6hPa Calm     92% 0.0in /  0mm WeatherDisplay:10.37 W/m2 FEW
22:06 -5.4 °F /  -20.8 °C -6.6 °F /  -21.4 °C 996.8in /  33751.6hPa Calm     92% 0.0in /  0mm WeatherDisplay:10.37 W/m2 FEW
22:11 -5.4 °F /  -20.8 °C -6.6 °F /  -21.4 °C 996.8in /  33751.6hPa Calm     92% 0.0in /  0mm WeatherDisplay:10.37 W/m2 FEW
22:16 -5.4 °F /  -20.8 °C -6.5 °F /  -21.4 °C 997.2in /  33765.2hPa Calm     92% 0.0in /  0mm WeatherDisplay:10.37 W/m2 FEW
22:21 -5.4 °F /  -20.8 °C -6.5 °F /  -21.4 °C 997.2in /  33765.2hPa Calm     92% 0.0in /  0mm WeatherDisplay:10.37 W/m2 FEW
22:26 -5.4 °F /  -20.8 °C -6.5 °F /  -21.4 °C 996.8in /  33751.6hPa Calm     92% 0.0in /  0mm WeatherDisplay:10.37 W/m2 FEW
22:33 -5.3 °F /  -20.7 °C -6.4 °F /  -21.3 °C 996.8in /  33751.6hPa Calm     92% 0.0in /  0mm WeatherDisplay:10.37 W/m2 FEW
22:37 -5.3 °F /  -20.7 °C -6.4 °F /  -21.3 °C 996.8in /  33751.6hPa Calm     92% 0.3in /  7.62mm WeatherDisplay:10.37 W/m2 RA
22:40 -5.3 °F /  -20.7 °C -6.4 °F /  -21.3 °C 996.8in /  33751.6hPa Calm     92% 0.3in /  7.62mm WeatherDisplay:10.37 W/m2 RA
22:45 -5.3 °F /  -20.7 °C -6.4 °F /  -21.3 °C 996.8in /  33751.6hPa Calm     92% 0.3in /  7.62mm WeatherDisplay:10.37 W/m2 RA
22:50 -5.3 °F /  -20.7 °C -6.4 °F /  -21.3 °C 996.8in /  33751.6hPa Calm     92% 0.3in /  7.62mm WeatherDisplay:10.37 W/m2 FEW
22:55 -5.3 °F /  -20.7 °C -6.4 °F /  -21.3 °C 996.8in /  33751.6hPa Calm     92% 0.3in /  7.62mm WeatherDisplay:10.37 W/m2 FEW
22:57 -5.2 °F /  -20.7 °C -6.3 °F /  -21.3 °C 996.8in /  33751.6hPa Calm     92% 0.3in /  7.62mm WeatherDisplay:10.37 W/m2 FEW
23:03 -5.2 °F /  -20.7 °C -6.3 °F /  -21.3 °C 996.8in /  33751.6hPa Calm     92% 0.3in /  7.62mm WeatherDisplay:10.37 W/m2 FEW
23:07 -5.2 °F /  -20.7 °C -6.3 °F /  -21.3 °C 996.8in /  33751.6hPa Calm     92% 0.3in /  7.62mm WeatherDisplay:10.37 W/m2 FEW
23:12 -5.3 °F /  -20.7 °C -6.4 °F /  -21.3 °C 996.8in /  33751.6hPa Calm     92% 0.3in /  7.62mm WeatherDisplay:10.37 W/m2 FEW
23:17 -5.3 °F /  -20.7 °C -6.4 °F /  -21.3 °C 996.8in /  33751.6hPa Calm     92% 0.3in /  7.62mm WeatherDisplay:10.37 W/m2 FEW
23:21 -5.3 °F /  -20.7 °C -6.4 °F /  -21.3 °C 996.8in /  33751.6hPa Calm     92% 0.3in /  7.62mm WeatherDisplay:10.37 W/m2 FEW
23:22 -5.2 °F /  -20.7 °C -6.3 °F /  -21.3 °C 996.8in /  33751.6hPa Calm     92% 0.3in /  7.62mm WeatherDisplay:10.37 W/m2 FEW
23:24 -5.2 °F /  -20.7 °C -6.3 °F /  -21.3 °C 996.8in /  33751.6hPa Calm     92% 0.3in /  7.62mm WeatherDisplay:10.37 W/m2 FEW
23:27 -5.2 °F /  -20.7 °C -6.3 °F /  -21.3 °C 996.8in /  33751.6hPa Calm     92% 0.3in /  7.62mm WeatherDisplay:10.37 W/m2 FEW
23:29 -5.2 °F /  -20.7 °C -6.3 °F /  -21.3 °C 996.8in /  33751.6hPa Calm     92% 0.3in /  7.62mm WeatherDisplay:10.37 W/m2 FEW
23:31 -5.2 °F /  -20.7 °C -6.3 °F /  -21.3 °C 996.8in /  33751.6hPa Calm     92% 0.3in /  7.62mm WeatherDisplay:10.37 W/m2 FEW
23:32 -5.2 °F /  -20.7 °C -6.3 °F /  -21.3 °C 996.8in /  33751.6hPa Calm     92% 0.3in /  7.62mm WeatherDisplay:10.37 W/m2 FEW
23:38 -5.2 °F /  -20.7 °C -6.3 °F /  -21.3 °C 996.8in /  33751.6hPa Calm     92% 0.0in /  0mm WeatherDisplay:10.37 W/m2 FEW
23:43 -5.2 °F /  -20.7 °C -6.3 °F /  -21.3 °C 996.8in /  33751.6hPa Calm     92% 0.0in /  0mm WeatherDisplay:10.37 W/m2 FEW
23:48 -5.2 °F /  -20.7 °C -6.3 °F /  -21.3 °C 996.8in /  33751.6hPa Calm     92% 0.0in /  0mm WeatherDisplay:10.37 W/m2 FEW
23:49 -5.2 °F /  -20.7 °C -6.3 °F /  -21.3 °C 996.8in /  33751.6hPa Calm     92% 0.0in /  0mm WeatherDisplay:10.37 W/m2 FEW
23:53 -5.2 °F /  -20.7 °C -6.3 °F /  -21.3 °C 996.8in /  33751.6hPa Calm     92% 0.0in /  0mm WeatherDisplay:10.37 W/m2 FEW
23:58 -5.2 °F /  -20.7 °C -6.3 °F /  -21.3 °C 996.8in /  33751.6hPa Calm     92% 0.0in /  0mm WeatherDisplay:10.37 W/m2 FEW
Tuulensuunkaari, Veikkola, Suomi
Compliments of Weather Underground - 2.25 mb